createdAt,value
2019-05-19T00:00:48.143Z,83.90
2019-05-19T00:03:17.764Z,84.00
2019-05-19T00:05:47.640Z,83.90
2019-05-19T00:08:17.285Z,84.00
2019-05-19T00:10:46.917Z,83.40
2019-05-19T00:13:16.502Z,83.70
2019-05-19T00:15:46.075Z,83.10
2019-05-19T00:18:15.671Z,83.50
2019-05-19T00:20:46.396Z,83.20
2019-05-19T00:23:16.178Z,83.10
2019-05-19T00:25:45.838Z,83.10
2019-05-19T00:28:15.585Z,83.20
2019-05-19T00:30:45.289Z,83.60
2019-05-19T00:33:14.938Z,84.10
2019-05-19T00:35:44.601Z,84.30
2019-05-19T00:38:14.355Z,84.00
2019-05-19T00:40:43.931Z,83.70
2019-05-19T00:43:13.642Z,84.00
2019-05-19T00:45:43.459Z,84.00
2019-05-19T00:48:13.131Z,84.10
2019-05-19T00:50:43.007Z,84.30
2019-05-19T00:53:12.618Z,83.30
2019-05-19T00:55:42.649Z,83.70
2019-05-19T00:58:13.457Z,83.40
2019-05-19T01:00:42.915Z,83.50
2019-05-19T01:03:12.485Z,83.20
2019-05-19T01:05:42.115Z,83.40
2019-05-19T01:08:11.821Z,83.80
2019-05-19T01:10:41.518Z,83.70
2019-05-19T01:13:11.196Z,84.20
2019-05-19T01:15:41.048Z,84.20
2019-05-19T01:18:10.793Z,83.90
2019-05-19T01:20:40.419Z,85.40
2019-05-19T01:23:09.999Z,85.20
2019-05-19T01:25:39.480Z,85.50
2019-05-19T01:28:09.288Z,85.60
2019-05-19T01:30:38.854Z,85.70
2019-05-19T01:33:09.564Z,85.30
2019-05-19T01:35:39.228Z,85.10
2019-05-19T01:38:08.834Z,85.30
2019-05-19T01:40:38.400Z,85.00
2019-05-19T01:43:08.019Z,84.80
2019-05-19T01:45:37.626Z,84.90
2019-05-19T01:48:07.367Z,85.20
2019-05-19T01:50:36.942Z,84.90
2019-05-19T01:53:07.581Z,84.80
2019-05-19T01:55:37.391Z,84.80
2019-05-19T01:58:07.102Z,84.70
2019-05-19T02:00:36.707Z,84.60
2019-05-19T02:03:06.519Z,83.80
2019-05-19T02:05:36.153Z,84.40
2019-05-19T02:08:05.916Z,85.70
2019-05-19T02:10:36.021Z,86.40
2019-05-19T02:13:05.666Z,87.30
2019-05-19T02:15:35.365Z,85.90
2019-05-19T02:18:05.098Z,85.60
2019-05-19T02:20:34.633Z,86.90
2019-05-19T02:23:04.296Z,87.70
2019-05-19T02:25:33.945Z,88.20
2019-05-19T02:28:03.625Z,89.50
2019-05-19T02:30:33.281Z,90.30
2019-05-19T02:33:03.006Z,90.40
2019-05-19T02:35:32.992Z,90.90
2019-05-19T02:38:02.613Z,90.80
2019-05-19T02:40:33.990Z,90.30
2019-05-19T02:43:04.439Z,90.40
2019-05-19T02:45:36.083Z,90.00
2019-05-19T02:48:06.413Z,89.20
2019-05-19T02:50:51.450Z,89.70
2019-05-19T02:53:09.662Z,88.40
2019-05-19T02:55:40.862Z,87.10
2019-05-19T02:58:12.158Z,86.60
2019-05-19T03:00:43.174Z,86.40
2019-05-19T03:03:12.943Z,87.10
2019-05-19T03:05:42.579Z,86.70
2019-05-19T03:08:12.314Z,86.80
2019-05-19T03:10:41.940Z,86.70
2019-05-19T03:13:11.603Z,86.50
2019-05-19T03:15:41.196Z,85.50
2019-05-19T03:18:10.833Z,84.70
2019-05-19T03:20:40.514Z,84.50
2019-05-19T03:23:10.184Z,83.90
2019-05-19T03:25:43.709Z,84.40
2019-05-19T03:28:11.178Z,83.10
2019-05-19T03:30:45.063Z,83.30
2019-05-19T03:33:22.001Z,83.50
2019-05-19T03:35:51.666Z,83.10
2019-05-19T03:38:21.317Z,82.90
2019-05-19T03:40:51.020Z,82.90
2019-05-19T03:43:20.669Z,82.80
2019-05-19T03:45:50.285Z,83.10
2019-05-19T03:48:19.952Z,83.00
2019-05-19T03:50:49.661Z,83.10
2019-05-19T03:53:19.218Z,82.80
2019-05-19T03:55:48.909Z,82.90
2019-05-19T03:58:18.692Z,83.20
2019-05-19T04:00:48.416Z,82.60
2019-05-19T04:03:17.973Z,82.30
2019-05-19T04:05:47.597Z,82.20
2019-05-19T04:08:17.175Z,82.40
2019-05-19T04:10:46.796Z,83.00
2019-05-19T04:13:16.401Z,83.00
2019-05-19T04:15:46.059Z,82.70
2019-05-19T04:18:15.765Z,82.60
2019-05-19T04:20:45.423Z,82.50
2019-05-19T04:23:15.177Z,82.70
2019-05-19T04:25:44.898Z,82.70
2019-05-19T04:28:14.599Z,83.00
2019-05-19T04:30:44.412Z,82.60
2019-05-19T04:33:14.016Z,82.30
2019-05-19T04:35:43.584Z,81.90
2019-05-19T04:38:13.239Z,82.00
2019-05-19T04:40:43.695Z,82.40
2019-05-19T04:43:13.266Z,81.90
2019-05-19T04:45:42.908Z,82.90
2019-05-19T04:48:12.482Z,82.50
2019-05-19T04:50:42.047Z,83.50
2019-05-19T04:53:11.617Z,84.70
2019-05-19T04:55:41.200Z,85.40
2019-05-19T04:58:10.759Z,86.10
2019-05-19T05:00:40.362Z,88.40
2019-05-19T05:03:10.168Z,89.40
2019-05-19T05:05:39.857Z,88.90
2019-05-19T05:08:25.248Z,89.00
2019-05-19T05:10:40.877Z,89.90
2019-05-19T05:13:10.646Z,89.80
2019-05-19T05:15:40.168Z,88.50
2019-05-19T05:18:09.758Z,88.90
2019-05-19T05:20:39.367Z,88.40
2019-05-19T05:23:08.831Z,88.00
2019-05-19T05:25:38.550Z,86.80
2019-05-19T05:28:08.175Z,86.50
2019-05-19T05:30:37.770Z,87.10
2019-05-19T05:33:07.379Z,87.10
2019-05-19T05:35:36.979Z,87.40
2019-05-19T05:38:06.534Z,87.00
2019-05-19T05:40:36.109Z,86.50
2019-05-19T05:43:05.733Z,86.50
2019-05-19T05:45:35.412Z,86.10
2019-05-19T05:48:05.042Z,85.70
2019-05-19T05:50:34.604Z,84.90
2019-05-19T05:53:04.373Z,85.10
2019-05-19T05:55:33.942Z,84.60
2019-05-19T05:58:03.601Z,84.80
2019-05-19T06:00:33.233Z,85.10
2019-05-19T06:03:02.975Z,85.60
2019-05-19T06:05:32.615Z,86.40
2019-05-19T06:08:02.264Z,86.70
2019-05-19T06:10:31.879Z,87.40
2019-05-19T06:13:01.470Z,88.10
2019-05-19T06:15:31.157Z,89.60
2019-05-19T06:18:00.847Z,90.30
2019-05-19T06:20:30.617Z,90.80
2019-05-19T06:23:00.483Z,91.50
2019-05-19T06:25:30.348Z,92.00
2019-05-19T06:27:59.895Z,91.60
2019-05-19T06:30:29.715Z,91.80
2019-05-19T06:33:00.801Z,91.80
2019-05-19T06:35:30.390Z,92.40
2019-05-19T06:37:59.884Z,92.30
2019-05-19T06:40:29.442Z,92.30
2019-05-19T06:42:59.089Z,92.20
2019-05-19T06:45:28.808Z,92.20
2019-05-19T06:47:58.587Z,91.80
2019-05-19T06:50:28.218Z,91.70
2019-05-19T06:53:12.678Z,92.20
2019-05-19T06:55:29.251Z,92.10
2019-05-19T06:57:58.795Z,92.20
2019-05-19T07:00:28.565Z,91.20
2019-05-19T07:02:58.119Z,91.80
2019-05-19T07:05:27.818Z,91.20
2019-05-19T07:07:57.422Z,91.60
2019-05-19T07:10:27.304Z,91.00
2019-05-19T07:12:56.906Z,91.00
2019-05-19T07:15:26.613Z,91.10
2019-05-19T07:17:56.232Z,91.00
2019-05-19T07:20:25.979Z,90.50
2019-05-19T07:22:55.531Z,90.90
2019-05-19T07:25:25.258Z,90.70
2019-05-19T07:27:54.956Z,92.20
2019-05-19T07:30:24.607Z,92.90
2019-05-19T07:32:54.288Z,92.60
2019-05-19T07:35:23.912Z,92.50
2019-05-19T07:37:53.409Z,91.90
2019-05-19T07:40:23.265Z,91.90
2019-05-19T07:42:53.213Z,91.40
2019-05-19T07:45:23.052Z,90.80
2019-05-19T07:47:53.722Z,90.80
2019-05-19T07:50:23.254Z,88.10
2019-05-19T07:52:52.830Z,88.60
2019-05-19T07:55:22.498Z,90.00
2019-05-19T07:57:52.125Z,90.30
2019-05-19T08:00:21.683Z,89.60
2019-05-19T08:02:51.353Z,90.60
2019-05-19T08:05:21.138Z,91.60
2019-05-19T08:07:50.835Z,91.20
2019-05-19T08:10:20.554Z,91.50
2019-05-19T08:12:50.296Z,92.20
2019-05-19T08:15:19.982Z,92.30
2019-05-19T08:17:49.542Z,92.60
2019-05-19T08:20:20.529Z,92.30
2019-05-19T08:22:51.446Z,91.80
2019-05-19T08:25:21.287Z,92.40
2019-05-19T08:27:50.965Z,91.80
2019-05-19T08:30:21.103Z,90.70
2019-05-19T08:32:50.868Z,90.80
2019-05-19T08:35:21.760Z,91.60
2019-05-19T08:37:51.369Z,91.60
2019-05-19T08:40:21.007Z,90.80
2019-05-19T08:42:50.682Z,90.80
2019-05-19T08:45:20.453Z,90.90
2019-05-19T08:47:49.946Z,90.70
2019-05-19T08:50:19.604Z,88.10
2019-05-19T08:52:49.238Z,88.30
2019-05-19T08:55:18.962Z,88.80
2019-05-19T08:57:48.630Z,89.10
2019-05-19T09:00:18.366Z,88.60
2019-05-19T09:02:48.095Z,89.40
2019-05-19T09:05:17.683Z,90.80
2019-05-19T09:07:47.329Z,88.90
2019-05-19T09:10:18.009Z,88.30
2019-05-19T09:12:47.635Z,87.90
2019-05-19T09:15:18.494Z,86.20
2019-05-19T09:17:48.082Z,85.90
2019-05-19T09:20:17.747Z,86.50
2019-05-19T09:22:47.509Z,86.00
2019-05-19T09:25:17.220Z,84.40
2019-05-19T09:27:46.897Z,87.10
2019-05-19T09:30:17.675Z,85.10
2019-05-19T09:32:47.447Z,85.60
2019-05-19T09:35:17.289Z,87.20
2019-05-19T09:37:47.822Z,89.50
2019-05-19T09:40:18.801Z,90.90
2019-05-19T09:42:48.443Z,90.90
2019-05-19T09:45:18.350Z,92.50
2019-05-19T09:47:48.710Z,93.00
2019-05-19T09:50:18.906Z,92.30
2019-05-19T09:52:48.763Z,92.70
2019-05-19T09:55:19.534Z,92.40
2019-05-19T09:57:49.142Z,93.00
2019-05-19T10:00:20.354Z,93.20
2019-05-19T10:02:50.112Z,93.60
2019-05-19T10:05:19.821Z,92.50
2019-05-19T10:07:50.639Z,92.60
2019-05-19T10:10:27.205Z,93.20
2019-05-19T10:12:58.121Z,92.20
2019-05-19T10:15:29.509Z,93.00
2019-05-19T10:17:59.149Z,92.50
2019-05-19T10:20:30.509Z,92.20
2019-05-19T10:23:01.661Z,91.80
2019-05-19T10:25:31.466Z,91.90
2019-05-19T10:28:01.246Z,92.00
2019-05-19T10:30:30.984Z,92.60
2019-05-19T10:33:00.574Z,92.60
2019-05-19T10:35:30.376Z,91.00
2019-05-19T10:38:00.220Z,90.90
2019-05-19T10:40:29.898Z,90.80
2019-05-19T10:43:00.225Z,91.00
2019-05-19T10:45:30.293Z,90.70
2019-05-19T10:48:00.054Z,91.10
2019-05-19T10:50:30.921Z,90.90
2019-05-19T10:53:00.597Z,90.60
2019-05-19T10:55:36.606Z,91.00
2019-05-19T10:58:04.458Z,91.00
2019-05-19T11:00:34.157Z,91.10
2019-05-19T11:03:03.966Z,90.90
2019-05-19T11:05:33.658Z,90.60
2019-05-19T11:08:03.374Z,89.60
2019-05-19T11:10:33.014Z,90.30
2019-05-19T11:13:02.615Z,90.10
2019-05-19T11:15:32.396Z,89.10
2019-05-19T11:18:02.100Z,89.50
2019-05-19T11:20:32.370Z,87.00
2019-05-19T11:23:01.942Z,85.80
2019-05-19T11:25:34.307Z,85.90
2019-05-19T11:28:03.131Z,87.70
2019-05-19T11:30:32.799Z,87.10
2019-05-19T11:33:04.780Z,87.50
2019-05-19T11:35:35.915Z,87.80
2019-05-19T11:38:06.396Z,87.40
2019-05-19T11:40:35.981Z,90.20
2019-05-19T11:43:07.989Z,89.80
2019-05-19T11:45:37.623Z,88.50
2019-05-19T11:48:07.337Z,89.50
2019-05-19T11:50:41.371Z,91.10
2019-05-19T11:53:08.528Z,91.40
2019-05-19T11:55:38.105Z,92.20
2019-05-19T11:58:09.385Z,92.30
2019-05-19T12:00:39.182Z,93.60
2019-05-19T12:03:08.736Z,93.40
2019-05-19T12:05:39.640Z,93.00
2019-05-19T12:08:09.315Z,93.30
2019-05-19T12:10:39.028Z,93.90
2019-05-19T12:13:08.666Z,93.40
2019-05-19T12:15:38.343Z,95.30
2019-05-19T12:18:07.928Z,94.80
2019-05-19T12:20:38.589Z,95.60
2019-05-19T12:23:08.218Z,95.20
2019-05-19T12:25:37.931Z,95.20
2019-05-19T12:28:07.716Z,95.20
2019-05-19T12:30:37.458Z,95.10
2019-05-19T12:33:07.193Z,95.70
2019-05-19T12:35:36.877Z,95.70
2019-05-19T12:38:06.484Z,95.40
2019-05-19T12:40:38.557Z,95.70
2019-05-19T12:43:11.026Z,95.50
2019-05-19T12:45:40.722Z,95.40
2019-05-19T12:48:10.420Z,95.60
2019-05-19T12:50:40.056Z,95.10
2019-05-19T12:53:09.791Z,95.10
2019-05-19T12:55:40.054Z,95.00
2019-05-19T12:58:09.645Z,94.60
2019-05-19T13:00:40.780Z,95.40
2019-05-19T13:03:11.965Z,95.00
2019-05-19T13:05:41.667Z,95.00
2019-05-19T13:08:12.950Z,95.40
2019-05-19T13:10:43.238Z,95.50
2019-05-19T13:13:12.896Z,95.70
2019-05-19T13:15:43.506Z,95.40
2019-05-19T13:18:13.187Z,95.50
2019-05-19T13:20:43.003Z,95.00
2019-05-19T13:23:12.562Z,94.70
2019-05-19T13:25:42.248Z,95.00
2019-05-19T13:28:11.928Z,95.10
2019-05-19T13:30:43.513Z,94.30
2019-05-19T13:33:12.819Z,94.40
2019-05-19T13:35:42.399Z,94.30
2019-05-19T13:38:15.173Z,92.80
2019-05-19T13:40:44.909Z,93.30
2019-05-19T13:43:14.491Z,93.00
2019-05-19T13:45:44.409Z,92.70
2019-05-19T13:48:14.218Z,93.20
2019-05-19T13:50:43.928Z,93.80
2019-05-19T13:53:13.642Z,93.40
2019-05-19T13:55:43.376Z,94.00
2019-05-19T13:58:14.167Z,93.20
2019-05-19T14:00:43.824Z,93.80
2019-05-19T14:03:15.096Z,93.60
2019-05-19T14:05:46.288Z,94.60
2019-05-19T14:08:15.863Z,93.50
2019-05-19T14:10:45.570Z,94.10
2019-05-19T14:13:15.069Z,93.60
2019-05-19T14:15:44.697Z,94.40
2019-05-19T14:18:17.161Z,93.00
2019-05-19T14:20:47.005Z,94.10
2019-05-19T14:23:16.578Z,94.50
2019-05-19T14:25:46.213Z,94.20
2019-05-19T14:28:15.733Z,94.30
2019-05-19T14:30:45.440Z,94.40
2019-05-19T14:33:16.576Z,94.50
2019-05-19T14:35:46.099Z,95.30
2019-05-19T14:38:15.724Z,95.90
2019-05-19T14:40:45.404Z,95.90
2019-05-19T14:43:17.954Z,95.80
2019-05-19T14:45:47.863Z,95.60
2019-05-19T14:48:18.559Z,95.60
2019-05-19T14:50:49.722Z,95.70
2019-05-19T14:53:21.568Z,95.20
2019-05-19T14:55:51.126Z,95.60
2019-05-19T14:58:20.835Z,95.90
2019-05-19T15:00:50.558Z,96.20
2019-05-19T15:03:20.129Z,96.40
2019-05-19T15:05:49.807Z,94.90
2019-05-19T15:08:19.356Z,95.90
2019-05-19T15:10:48.917Z,96.10
2019-05-19T15:13:18.629Z,96.20
2019-05-19T15:15:49.059Z,94.30
2019-05-19T15:18:19.830Z,93.70
2019-05-19T15:20:50.577Z,94.10
2019-05-19T15:23:21.736Z,94.40
2019-05-19T15:25:51.453Z,94.40
2019-05-19T15:28:21.648Z,94.20
2019-05-19T15:30:51.288Z,94.10
2019-05-19T15:33:20.846Z,93.10
2019-05-19T15:35:50.722Z,94.50
2019-05-19T15:38:20.393Z,94.60
2019-05-19T15:40:52.140Z,94.90
2019-05-19T15:43:21.809Z,95.40
2019-05-19T15:45:51.416Z,95.40
2019-05-19T15:48:21.198Z,95.50
2019-05-19T15:50:51.016Z,95.00
2019-05-19T15:53:20.820Z,94.50
2019-05-19T15:55:52.035Z,94.20
2019-05-19T15:58:21.529Z,94.30
2019-05-19T16:00:51.192Z,94.50
2019-05-19T16:03:20.822Z,94.80
2019-05-19T16:05:52.296Z,95.00
2019-05-19T16:08:27.084Z,94.60
2019-05-19T16:10:56.634Z,95.10
2019-05-19T16:13:26.714Z,95.50
2019-05-19T16:15:56.352Z,95.70
2019-05-19T16:18:26.016Z,95.50
2019-05-19T16:20:55.720Z,95.50
2019-05-19T16:23:25.444Z,95.30
2019-05-19T16:25:55.313Z,94.90
2019-05-19T16:28:30.619Z,94.60
2019-05-19T16:30:56.434Z,94.00
2019-05-19T16:33:26.013Z,93.70
2019-05-19T16:35:56.101Z,94.10
2019-05-19T16:38:25.746Z,94.80
2019-05-19T16:40:57.066Z,94.80
2019-05-19T16:43:26.700Z,94.40
2019-05-19T16:45:58.853Z,94.60
2019-05-19T16:48:29.581Z,94.60
2019-05-19T16:50:59.314Z,95.30
2019-05-19T16:53:29.235Z,95.00
2019-05-19T16:56:02.231Z,94.70
2019-05-19T16:58:44.532Z,95.10
2019-05-19T17:01:03.717Z,95.70
2019-05-19T17:03:33.253Z,96.00
2019-05-19T17:06:02.962Z,96.20
2019-05-19T17:08:32.861Z,96.40
2019-05-19T17:11:16.354Z,96.50
2019-05-19T17:13:33.604Z,96.70
2019-05-19T17:16:04.543Z,96.90
2019-05-19T17:18:34.556Z,97.30
2019-05-19T17:21:04.140Z,97.60
2019-05-19T17:23:33.686Z,98.00
2019-05-19T17:26:03.426Z,98.00
2019-05-19T17:28:33.193Z,98.20
2019-05-19T17:31:07.504Z,98.20
2019-05-19T17:33:35.698Z,98.10
2019-05-19T17:36:05.470Z,98.60
2019-05-19T17:38:35.186Z,98.80
2019-05-19T17:41:04.829Z,98.70
2019-05-19T17:43:34.494Z,99.00
2019-05-19T17:46:04.413Z,99.00
2019-05-19T17:48:34.739Z,98.90
2019-05-19T17:51:04.681Z,99.10
2019-05-19T17:53:36.392Z,98.70
2019-05-19T17:56:07.772Z,98.60
2019-05-19T17:58:38.385Z,98.90
2019-05-19T18:01:08.105Z,99.20
2019-05-19T18:03:39.190Z,99.30
2019-05-19T18:06:09.382Z,99.80
2019-05-19T18:08:40.610Z,99.90
2019-05-19T18:11:11.274Z,99.90
2019-05-19T18:13:40.899Z,99.90
2019-05-19T18:16:11.176Z,99.90
2019-05-19T18:18:40.882Z,99.90
2019-05-19T18:21:11.755Z,99.90
2019-05-19T18:23:41.373Z,99.90
2019-05-19T18:26:11.187Z,99.90
2019-05-19T18:28:43.666Z,99.90
2019-05-19T18:31:13.329Z,99.90
2019-05-19T18:33:43.481Z,99.90
2019-05-19T18:36:15.659Z,99.90
2019-05-19T18:38:45.426Z,99.90
2019-05-19T18:41:15.868Z,99.90
2019-05-19T18:43:45.506Z,99.90
2019-05-19T18:46:16.662Z,99.90
2019-05-19T18:48:46.969Z,99.90
2019-05-19T18:51:16.806Z,99.90
2019-05-19T18:53:46.896Z,99.90
2019-05-19T18:56:18.077Z,99.90
2019-05-19T18:58:49.137Z,99.90
2019-05-19T19:01:19.770Z,99.90
2019-05-19T19:03:49.626Z,99.90
2019-05-19T19:06:19.247Z,99.90
2019-05-19T19:08:49.048Z,99.90
2019-05-19T19:11:18.730Z,99.90
2019-05-19T19:13:48.366Z,99.90
2019-05-19T19:16:17.978Z,99.90
2019-05-19T19:18:50.315Z,99.90
2019-05-19T19:21:19.905Z,99.90
2019-05-19T19:23:50.209Z,99.90
2019-05-19T19:26:19.854Z,99.90
2019-05-19T19:28:50.968Z,99.90
2019-05-19T19:31:22.302Z,99.90
2019-05-19T19:33:53.406Z,99.90
2019-05-19T19:36:23.986Z,99.90
2019-05-19T19:38:56.900Z,99.90
2019-05-19T19:41:29.215Z,99.90
2019-05-19T19:43:59.125Z,99.90
2019-05-19T19:46:28.835Z,99.90
2019-05-19T19:48:58.525Z,99.90
2019-05-19T19:51:29.217Z,99.90
2019-05-19T19:53:58.956Z,99.90
2019-05-19T19:56:31.478Z,99.90
2019-05-19T19:59:01.174Z,99.90
2019-05-19T20:01:30.963Z,99.90
2019-05-19T20:04:01.983Z,99.90
2019-05-19T20:06:33.036Z,99.90
2019-05-19T20:09:05.588Z,99.90
2019-05-19T20:11:36.869Z,99.90
2019-05-19T20:14:07.660Z,99.90
2019-05-19T20:16:37.180Z,99.90
2019-05-19T20:19:06.843Z,99.90
2019-05-19T20:21:36.455Z,99.90
2019-05-19T20:24:41.750Z,99.90
2019-05-19T20:27:11.373Z,99.90
2019-05-19T20:29:41.110Z,99.90
2019-05-19T20:32:10.657Z,99.90
2019-05-19T20:34:40.742Z,99.90
2019-05-19T20:37:15.130Z,99.90
2019-05-19T20:39:43.486Z,99.90
2019-05-19T20:42:13.663Z,99.90
2019-05-19T20:44:43.306Z,99.90
2019-05-19T20:47:14.304Z,99.90
2019-05-19T20:49:44.020Z,99.90
2019-05-19T20:52:15.234Z,99.90
2019-05-19T20:54:44.941Z,99.90
2019-05-19T20:57:14.508Z,99.90
2019-05-19T20:59:44.096Z,99.90
2019-05-19T21:02:13.725Z,99.90
2019-05-19T21:04:43.306Z,99.90
2019-05-19T21:07:12.853Z,99.90
2019-05-19T21:09:42.636Z,99.90
2019-05-19T21:12:12.453Z,99.90
2019-05-19T21:14:43.152Z,99.90
2019-05-19T21:17:13.859Z,99.90
2019-05-19T21:19:45.042Z,99.90
2019-05-19T21:22:16.299Z,99.90
2019-05-19T21:24:46.007Z,99.90
2019-05-19T21:27:15.585Z,99.90
2019-05-19T21:29:46.596Z,99.90
2019-05-19T21:32:17.229Z,99.90
2019-05-19T21:34:47.778Z,99.90
2019-05-19T21:37:17.262Z,99.90
2019-05-19T21:39:47.003Z,99.90
2019-05-19T21:42:16.584Z,99.90
2019-05-19T21:44:46.213Z,99.90
2019-05-19T21:47:15.947Z,99.90
2019-05-19T21:49:45.616Z,99.90
2019-05-19T21:52:15.270Z,99.90
2019-05-19T21:54:44.760Z,99.90
2019-05-19T21:57:14.473Z,99.90
2019-05-19T21:59:44.036Z,99.90
2019-05-19T22:02:13.779Z,99.90
2019-05-19T22:04:43.342Z,99.90
2019-05-19T22:07:14.612Z,99.90
2019-05-19T22:09:44.355Z,99.90
2019-05-19T22:12:13.980Z,99.90
2019-05-19T22:14:43.666Z,99.90
2019-05-19T22:17:13.403Z,99.90
2019-05-19T22:19:43.123Z,99.90
2019-05-19T22:22:12.740Z,99.90
2019-05-19T22:24:42.505Z,99.90
2019-05-19T22:27:12.214Z,99.90
2019-05-19T22:29:41.933Z,99.90
2019-05-19T22:32:11.567Z,99.90
2019-05-19T22:34:41.272Z,99.90
2019-05-19T22:37:10.952Z,99.90
2019-05-19T22:39:40.668Z,99.90
2019-05-19T22:42:10.271Z,99.90
2019-05-19T22:44:40.089Z,99.90
2019-05-19T22:47:09.843Z,99.90
2019-05-19T22:49:39.474Z,99.90
2019-05-19T22:52:09.084Z,99.90
2019-05-19T22:54:38.655Z,99.90
2019-05-19T22:57:08.294Z,99.90
2019-05-19T22:59:38.040Z,99.90
2019-05-19T23:02:09.365Z,99.90
2019-05-19T23:04:39.276Z,99.90
2019-05-19T23:07:08.905Z,99.90
2019-05-19T23:09:38.572Z,99.90
2019-05-19T23:12:08.210Z,99.90
2019-05-19T23:14:37.997Z,99.90
2019-05-19T23:17:07.820Z,99.90
2019-05-19T23:19:37.459Z,99.90
2019-05-19T23:22:07.113Z,99.90
2019-05-19T23:24:36.813Z,99.90
2019-05-19T23:27:06.593Z,99.90
2019-05-19T23:29:36.171Z,99.90
2019-05-19T23:32:07.400Z,99.90
2019-05-19T23:34:38.489Z,99.90
2019-05-19T23:37:08.194Z,99.90
2019-05-19T23:39:37.828Z,99.90
2019-05-19T23:42:07.410Z,99.90
2019-05-19T23:44:36.971Z,99.90
2019-05-19T23:47:06.634Z,99.90
2019-05-19T23:49:36.336Z,99.90
2019-05-19T23:52:05.977Z,99.90
2019-05-19T23:54:35.694Z,99.90
2019-05-19T23:57:05.323Z,99.90
2019-05-19T23:59:35.008Z,99.90
